Benoni, South Africa
Current Conditions -  °F | °C
As of 9:30 AM on Wednesday 26 Nov 2014 (Local Time) from FAOR Reporting Station
Few Clouds Few Clouds  
Wind Chill: 68°   Ceiling: Unl
Heat Index: 68°   Visibility: 6mi
Dew Point: 57°   Wind: 15mph
Humidity: 68%   Direction: 10°N
Pressure: 30.24"   Gusts: NA
Location:  26.15°S, 28.33°E
Report Text: FAOR 260730Z 01013KT 9999 FEW020 20/14 Q1024 NOSIG
Loading
Personal Weather Stations






























Interactive Weather Map New forecast layout! Learn more

10-Day Weather Forecast

Advertisements
Track Severe Weather on mobile